createdAt,value
2022-12-14T06:08:58.499Z,-6.13
2022-12-14T06:29:32.451Z,-6.14
2022-12-14T06:49:14.601Z,-6.18
2022-12-14T06:52:07.582Z,-6.17
2022-12-14T06:54:43.746Z,-6.17
2022-12-14T06:57:10.908Z,-6.16
2022-12-14T06:59:38.189Z,-6.13
2022-12-14T07:02:05.634Z,-6.13
2022-12-14T07:04:32.825Z,-6.13
2022-12-14T07:06:59.991Z,-6.13
2022-12-14T07:09:27.149Z,-6.15
2022-12-14T07:11:54.341Z,-6.16
2022-12-14T07:14:21.513Z,-6.22
2022-12-14T07:16:49.218Z,-6.27
2022-12-14T07:19:17.445Z,-6.21
2022-12-14T07:21:44.589Z,-6.19
2022-12-14T07:24:11.768Z,-6.19
2022-12-14T07:26:38.993Z,-6.18
2022-12-14T07:29:06.641Z,-6.18
2022-12-14T07:31:33.894Z,-6.16
2022-12-14T07:34:01.119Z,-6.17
2022-12-14T07:36:29.420Z,-6.23
2022-12-14T07:38:57.300Z,-6.21
2022-12-14T07:41:30.418Z,-6.20
2022-12-14T07:43:59.653Z,-6.16
2022-12-14T07:46:29.337Z,-6.12
2022-12-14T07:48:57.610Z,-6.10
2022-12-14T07:51:33.219Z,-6.06
2022-12-14T07:54:01.346Z,-6.05
2022-12-14T07:56:32.392Z,-6.01
2022-12-14T07:59:00.784Z,-5.99
2022-12-14T08:01:34.016Z,-5.98
2022-12-14T08:04:05.841Z,-5.95
2022-12-14T08:06:33.726Z,-5.96
2022-12-14T08:09:01.126Z,-5.97
2022-12-14T08:11:28.721Z,-5.96
2022-12-14T08:14:00.943Z,-5.94
2022-12-14T08:16:28.702Z,-5.91
2022-12-14T08:18:58.896Z,-5.87
2022-12-14T08:21:27.569Z,-5.83
2022-12-14T08:23:56.025Z,-5.81
2022-12-14T08:26:27.359Z,-5.79
2022-12-14T08:28:57.307Z,-5.75
2022-12-14T08:31:26.174Z,-5.71
2022-12-14T08:33:53.705Z,-5.83
2022-12-14T08:36:29.053Z,-5.80
2022-12-14T08:39:01.503Z,-5.72
2022-12-14T08:41:29.394Z,-5.67
2022-12-14T08:43:58.489Z,-5.65
2022-12-14T08:46:27.831Z,-5.56
2022-12-14T08:48:55.724Z,-5.50
2022-12-14T08:51:24.084Z,-5.42
2022-12-14T08:53:51.820Z,-5.38
2022-12-14T08:56:21.367Z,-5.30
2022-12-14T08:58:48.472Z,-5.24
2022-12-14T09:01:19.549Z,-5.18
2022-12-14T09:03:47.513Z,-5.16
2022-12-14T09:06:17.157Z,-5.11
2022-12-14T09:08:44.517Z,-5.10
2022-12-14T09:11:13.727Z,-5.06
2022-12-14T09:13:41.769Z,-5.02
2022-12-14T09:16:17.342Z,-4.95
2022-12-14T09:18:47.950Z,-4.91
2022-12-14T09:21:15.541Z,-4.88
2022-12-14T09:23:43.132Z,-4.84
2022-12-14T09:26:18.607Z,-4.81
2022-12-14T09:28:51.262Z,-4.78
2022-12-14T09:31:21.300Z,-4.75
2022-12-14T09:33:48.668Z,-4.72
2022-12-14T09:36:23.187Z,-4.66
2022-12-14T09:38:52.400Z,-4.61
2022-12-14T09:41:34.917Z,-4.59
2022-12-14T09:44:09.630Z,-4.53
2022-12-14T09:46:42.969Z,-4.46
2022-12-14T09:49:38.670Z,-4.37
2022-12-14T09:52:07.222Z,-4.30
2022-12-14T09:54:38.625Z,-4.21
2022-12-14T09:57:26.097Z,-4.23
2022-12-14T09:59:54.624Z,-4.18
2022-12-14T10:02:32.878Z,-4.08
2022-12-14T10:05:21.655Z,-4.00
2022-12-14T10:08:02.580Z,-3.95
2022-12-14T10:11:08.642Z,-3.88
2022-12-14T10:13:55.662Z,-3.80
2022-12-14T10:16:31.304Z,-3.71
2022-12-14T10:19:02.704Z,-3.64
2022-12-14T10:21:42.265Z,-3.63
2022-12-14T10:24:15.318Z,-3.53
2022-12-14T10:26:47.096Z,-3.44
2022-12-14T10:29:16.403Z,-3.40
2022-12-14T10:31:58.682Z,-3.29
2022-12-14T10:34:29.664Z,-3.24
2022-12-14T10:37:06.895Z,-3.16
2022-12-14T10:39:36.570Z,-3.12
2022-12-14T10:42:32.038Z,-3.07
2022-12-14T10:48:11.448Z,-3.00
2022-12-14T10:50:57.059Z,-2.95
2022-12-14T10:53:33.443Z,-2.96
2022-12-14T10:56:08.792Z,-2.94
2022-12-14T10:58:35.972Z,-2.86
2022-12-14T11:01:03.260Z,-2.80
2022-12-14T11:03:30.791Z,-2.70
2022-12-14T11:05:57.943Z,-2.63
2022-12-14T11:08:48.804Z,-2.62
2022-12-14T11:11:25.953Z,-2.49
2022-12-14T11:13:55.349Z,-2.37
2022-12-14T11:16:36.610Z,-2.16
2022-12-14T11:19:06.645Z,-1.92
2022-12-14T11:21:36.341Z,-1.73
2022-12-14T11:24:03.977Z,-1.68
2022-12-14T11:26:37.210Z,-1.47
2022-12-14T11:29:26.371Z,-1.35
2022-12-14T11:31:53.576Z,-1.34
2022-12-14T11:34:23.512Z,-1.20
2022-12-14T11:36:50.770Z,-1.02
2022-12-14T11:39:22.737Z,-0.86
2022-12-14T11:41:58.791Z,-0.87
2022-12-14T11:44:27.657Z,-0.86
2022-12-14T11:47:02.275Z,-0.92
2022-12-14T11:49:35.735Z,-1.00
2022-12-14T11:52:20.196Z,-1.05
2022-12-14T11:54:54.371Z,-1.07
2022-12-14T11:57:24.711Z,-1.08
2022-12-14T11:59:54.499Z,-0.97
2022-12-14T12:02:30.398Z,-0.90
2022-12-14T12:05:20.747Z,-0.87
2022-12-14T12:07:50.609Z,-0.82
2022-12-14T12:10:20.999Z,-0.64
2022-12-14T12:12:54.293Z,-0.45
2022-12-14T12:15:36.403Z,-0.39
2022-12-14T12:18:46.442Z,-0.42
2022-12-14T12:21:29.341Z,-0.37
2022-12-14T12:24:05.243Z,-0.34
2022-12-14T12:26:34.994Z,-0.33
2022-12-14T12:29:15.440Z,-0.27
2022-12-14T12:31:50.486Z,0.08
2022-12-14T12:34:40.696Z,0.21
2022-12-14T12:37:30.502Z,0.24
2022-12-14T12:40:02.397Z,0.22
2022-12-14T12:42:41.394Z,0.09
2022-12-14T12:45:24.851Z,-0.10
2022-12-14T12:48:00.775Z,-0.27
2022-12-14T12:50:36.087Z,-0.40
2022-12-14T12:53:11.349Z,-0.50
2022-12-14T12:55:42.669Z,-0.68
2022-12-14T12:58:19.246Z,-0.59
2022-12-14T13:00:51.536Z,-0.26
2022-12-14T13:03:23.868Z,0.14
2022-12-14T13:05:53.324Z,0.46
2022-12-14T13:08:26.699Z,0.73
2022-12-14T13:13:49.002Z,1.09
2022-12-14T13:16:35.209Z,1.23
2022-12-14T13:19:40.422Z,1.27
2022-12-14T13:22:01.827Z,1.37
2022-12-14T13:24:32.592Z,1.22
2022-12-14T13:27:17.891Z,0.94
2022-12-14T13:30:20.559Z,0.52
2022-12-14T13:33:13.170Z,0.32
2022-12-14T13:35:52.726Z,0.13
2022-12-14T13:38:38.256Z,-0.08
2022-12-14T13:41:26.541Z,-0.27
2022-12-14T13:44:13.520Z,-0.38
2022-12-14T13:46:41.693Z,-0.42
2022-12-14T13:49:18.719Z,-0.54
2022-12-14T13:51:50.297Z,-0.61
2022-12-14T13:54:30.590Z,-0.65
2022-12-14T13:57:09.109Z,-0.75
2022-12-14T13:59:45.242Z,-0.97
2022-12-14T14:02:28.007Z,-1.04
2022-12-14T14:05:20.239Z,-1.14
2022-12-14T14:08:31.133Z,-1.20
2022-12-14T14:14:45.008Z,-1.33
2022-12-14T14:17:24.341Z,-1.50
2022-12-14T14:19:56.327Z,-1.50
2022-12-14T14:22:27.486Z,-1.45
2022-12-14T14:25:02.492Z,-1.48
2022-12-14T14:27:38.697Z,-1.50
2022-12-14T14:30:28.929Z,-1.66
2022-12-14T14:33:07.610Z,-1.76
2022-12-14T14:35:43.807Z,-1.90
2022-12-14T14:38:27.829Z,-2.13
2022-12-14T14:41:17.444Z,-2.21
2022-12-14T14:43:51.880Z,-2.22
2022-12-14T14:46:23.142Z,-2.26
2022-12-14T14:48:54.391Z,-2.34
2022-12-14T14:51:26.302Z,-2.38
2022-12-14T14:54:56.567Z,-2.44
2022-12-14T14:57:35.884Z,-2.45
2022-12-14T15:00:05.193Z,-2.48
2022-12-14T15:02:37.983Z,-2.45
2022-12-14T15:05:40.307Z,-2.41
2022-12-14T15:07:54.599Z,-2.45
2022-12-14T15:10:31.133Z,-2.55
2022-12-14T15:13:04.149Z,-2.63
2022-12-14T15:15:43.837Z,-2.64
2022-12-14T15:18:20.433Z,-2.61
2022-12-14T15:21:08.189Z,-2.61
2022-12-14T15:23:37.862Z,-2.63
2022-12-14T15:26:16.581Z,-2.67
2022-12-14T15:28:52.950Z,-2.70
2022-12-14T15:31:35.021Z,-2.71
2022-12-14T15:34:02.683Z,-2.88
2022-12-14T15:36:33.620Z,-2.97
2022-12-14T15:39:00.840Z,-3.05
2022-12-14T15:41:29.869Z,-3.01
2022-12-14T15:44:00.027Z,-2.93
2022-12-14T15:46:35.090Z,-2.89
2022-12-14T15:49:04.957Z,-2.94
2022-12-14T15:51:40.753Z,-2.95
2022-12-14T15:54:12.141Z,-2.94
2022-12-14T15:56:45.938Z,-3.12
2022-12-14T15:59:19.793Z,-3.22
2022-12-14T16:01:54.300Z,-3.22
2022-12-14T16:04:23.696Z,-3.14
2022-12-14T16:07:08.581Z,-3.13
2022-12-14T16:09:41.394Z,-3.27
2022-12-14T16:12:40.894Z,-3.26
2022-12-14T16:15:23.966Z,-3.29
2022-12-14T16:17:57.511Z,-3.31
2022-12-14T16:20:34.166Z,-3.24
2022-12-14T16:23:27.715Z,-3.26
2022-12-14T16:26:14.194Z,-3.36
2022-12-14T16:28:41.582Z,-3.40
2022-12-14T16:31:11.746Z,-3.40
2022-12-14T16:33:43.194Z,-3.40
2022-12-14T16:36:22.307Z,-3.38
2022-12-14T18:43:25.771Z,-4.62
2022-12-14T19:04:40.641Z,-4.71
2022-12-14T20:54:18.802Z,-5.24
2022-12-14T20:57:35.708Z,-5.25
2022-12-14T21:04:28.043Z,-5.23
2022-12-14T21:06:55.289Z,-5.23
2022-12-14T21:09:22.494Z,-5.26
2022-12-14T21:12:10.179Z,-5.28
2022-12-14T21:14:42.393Z,-5.23
2022-12-14T21:17:10.023Z,-5.31
2022-12-14T21:19:37.413Z,-5.28
2022-12-14T21:22:05.768Z,-5.29
2022-12-14T22:51:15.092Z,-5.72
2022-12-14T22:58:32.247Z,-5.74
2022-12-14T23:36:19.753Z,-5.91
2022-12-14T23:44:07.789Z,-6.01
